sensor_id;sensor_type;location;lat;lon;timestamp;temperature;humidity
20672;DHT22;10495;50.922;4.760;2022-12-11T00:02:08;3.70;85.40
20672;DHT22;10495;50.922;4.760;2022-12-11T00:04:34;3.80;85.40
20672;DHT22;10495;50.922;4.760;2022-12-11T00:07:00;3.70;85.30
20672;DHT22;10495;50.922;4.760;2022-12-11T00:09:25;3.80;85.00
20672;DHT22;10495;50.922;4.760;2022-12-11T00:11:51;3.80;85.80
20672;DHT22;10495;50.922;4.760;2022-12-11T00:14:17;3.80;84.80
20672;DHT22;10495;50.922;4.760;2022-12-11T00:16:43;3.80;84.80
20672;DHT22;10495;50.922;4.760;2022-12-11T00:19:09;3.90;84.60
20672;DHT22;10495;50.922;4.760;2022-12-11T00:21:34;3.90;84.00
20672;DHT22;10495;50.922;4.760;2022-12-11T00:24:00;3.90;83.90
20672;DHT22;10495;50.922;4.760;2022-12-11T00:26:26;3.90;84.00
20672;DHT22;10495;50.922;4.760;2022-12-11T00:28:53;3.80;83.90
20672;DHT22;10495;50.922;4.760;2022-12-11T00:31:20;3.70;84.30
20672;DHT22;10495;50.922;4.760;2022-12-11T00:33:46;3.80;84.40
20672;DHT22;10495;50.922;4.760;2022-12-11T00:36:23;3.70;84.40
20672;DHT22;10495;50.922;4.760;2022-12-11T00:38:50;3.90;83.70
20672;DHT22;10495;50.922;4.760;2022-12-11T00:41:16;3.80;83.50
20672;DHT22;10495;50.922;4.760;2022-12-11T00:43:42;3.80;84.70
20672;DHT22;10495;50.922;4.760;2022-12-11T00:46:09;3.80;83.70
20672;DHT22;10495;50.922;4.760;2022-12-11T00:48:34;3.80;83.50
20672;DHT22;10495;50.922;4.760;2022-12-11T00:51:00;3.90;83.10
20672;DHT22;10495;50.922;4.760;2022-12-11T00:53:26;3.70;83.90
20672;DHT22;10495;50.922;4.760;2022-12-11T00:55:51;3.80;83.80
20672;DHT22;10495;50.922;4.760;2022-12-11T00:58:17;3.90;83.90
20672;DHT22;10495;50.922;4.760;2022-12-11T01:00:43;3.90;83.70
20672;DHT22;10495;50.922;4.760;2022-12-11T01:03:10;3.90;83.60
20672;DHT22;10495;50.922;4.760;2022-12-11T01:05:37;3.90;82.60
20672;DHT22;10495;50.922;4.760;2022-12-11T01:08:03;3.70;83.50
20672;DHT22;10495;50.922;4.760;2022-12-11T01:10:29;3.80;83.30
20672;DHT22;10495;50.922;4.760;2022-12-11T01:12:58;3.70;83.20
20672;DHT22;10495;50.922;4.760;2022-12-11T01:15:27;4.00;83.00
20672;DHT22;10495;50.922;4.760;2022-12-11T01:17:53;4.00;82.20
20672;DHT22;10495;50.922;4.760;2022-12-11T01:20:21;4.00;82.50
20672;DHT22;10495;50.922;4.760;2022-12-11T01:22:47;4.10;82.50
20672;DHT22;10495;50.922;4.760;2022-12-11T01:25:13;4.00;82.50
20672;DHT22;10495;50.922;4.760;2022-12-11T01:27:39;4.10;82.30
20672;DHT22;10495;50.922;4.760;2022-12-11T01:30:07;4.00;81.80
20672;DHT22;10495;50.922;4.760;2022-12-11T01:32:33;4.00;82.50
20672;DHT22;10495;50.922;4.760;2022-12-11T01:34:59;4.00;82.40
20672;DHT22;10495;50.922;4.760;2022-12-11T01:37:25;4.00;82.60
20672;DHT22;10495;50.922;4.760;2022-12-11T01:39:50;3.80;82.90
20672;DHT22;10495;50.922;4.760;2022-12-11T01:42:17;3.80;83.20
20672;DHT22;10495;50.922;4.760;2022-12-11T01:47:09;3.70;83.30
20672;DHT22;10495;50.922;4.760;2022-12-11T01:49:36;3.80;83.30
20672;DHT22;10495;50.922;4.760;2022-12-11T01:52:13;3.90;83.10
20672;DHT22;10495;50.922;4.760;2022-12-11T01:54:41;3.80;83.10
20672;DHT22;10495;50.922;4.760;2022-12-11T01:57:08;3.80;83.40
20672;DHT22;10495;50.922;4.760;2022-12-11T01:59:38;3.80;83.40
20672;DHT22;10495;50.922;4.760;2022-12-11T02:02:09;3.90;83.50
20672;DHT22;10495;50.922;4.760;2022-12-11T02:04:37;3.80;83.40
20672;DHT22;10495;50.922;4.760;2022-12-11T02:07:04;3.90;83.20
20672;DHT22;10495;50.922;4.760;2022-12-11T02:09:33;3.90;83.30
20672;DHT22;10495;50.922;4.760;2022-12-11T02:14:46;3.90;83.90
20672;DHT22;10495;50.922;4.760;2022-12-11T02:17:40;3.90;83.80
20672;DHT22;10495;50.922;4.760;2022-12-11T02:20:17;3.80;84.00
20672;DHT22;10495;50.922;4.760;2022-12-11T02:22:57;3.90;83.80
20672;DHT22;10495;50.922;4.760;2022-12-11T02:28:27;3.80;83.60
20672;DHT22;10495;50.922;4.760;2022-12-11T02:31:06;3.90;83.70
20672;DHT22;10495;50.922;4.760;2022-12-11T02:34:02;3.90;84.00
20672;DHT22;10495;50.922;4.760;2022-12-11T02:36:32;3.90;84.00
20672;DHT22;10495;50.922;4.760;2022-12-11T02:39:00;3.90;83.90
20672;DHT22;10495;50.922;4.760;2022-12-11T02:41:28;4.00;84.10
20672;DHT22;10495;50.922;4.760;2022-12-11T02:43:56;4.00;84.00
20672;DHT22;10495;50.922;4.760;2022-12-11T02:46:24;4.00;83.90
20672;DHT22;10495;50.922;4.760;2022-12-11T02:48:51;4.00;84.10
20672;DHT22;10495;50.922;4.760;2022-12-11T02:51:25;4.10;84.20
20672;DHT22;10495;50.922;4.760;2022-12-11T02:53:55;4.20;83.90
20672;DHT22;10495;50.922;4.760;2022-12-11T02:56:41;4.10;83.50
20672;DHT22;10495;50.922;4.760;2022-12-11T02:59:14;4.10;83.60
20672;DHT22;10495;50.922;4.760;2022-12-11T03:01:42;4.10;83.50
20672;DHT22;10495;50.922;4.760;2022-12-11T03:04:08;4.10;83.70
20672;DHT22;10495;50.922;4.760;2022-12-11T03:06:38;4.10;83.70
20672;DHT22;10495;50.922;4.760;2022-12-11T03:09:06;4.00;83.50
20672;DHT22;10495;50.922;4.760;2022-12-11T03:11:32;4.00;83.70
20672;DHT22;10495;50.922;4.760;2022-12-11T03:13:58;4.00;83.40
20672;DHT22;10495;50.922;4.760;2022-12-11T03:21:47;4.00;82.80
20672;DHT22;10495;50.922;4.760;2022-12-11T03:24:37;4.00;83.20
20672;DHT22;10495;50.922;4.760;2022-12-11T03:27:13;3.90;83.30
20672;DHT22;10495;50.922;4.760;2022-12-11T03:29:57;3.90;83.90
20672;DHT22;10495;50.922;4.760;2022-12-11T03:32:28;3.90;83.60
20672;DHT22;10495;50.922;4.760;2022-12-11T03:35:10;4.00;83.20
20672;DHT22;10495;50.922;4.760;2022-12-11T03:37:39;4.00;83.50
20672;DHT22;10495;50.922;4.760;2022-12-11T03:40:11;4.00;83.30
20672;DHT22;10495;50.922;4.760;2022-12-11T03:42:38;4.00;83.30
20672;DHT22;10495;50.922;4.760;2022-12-11T03:45:05;4.10;83.40
20672;DHT22;10495;50.922;4.760;2022-12-11T03:47:33;4.20;83.00
20672;DHT22;10495;50.922;4.760;2022-12-11T03:50:00;4.20;82.90
20672;DHT22;10495;50.922;4.760;2022-12-11T03:52:27;4.10;81.90
20672;DHT22;10495;50.922;4.760;2022-12-11T03:54:55;4.00;82.80
20672;DHT22;10495;50.922;4.760;2022-12-11T03:57:26;3.90;83.00
20672;DHT22;10495;50.922;4.760;2022-12-11T03:59:53;4.00;83.00
20672;DHT22;10495;50.922;4.760;2022-12-11T04:02:19;4.00;83.30
20672;DHT22;10495;50.922;4.760;2022-12-11T04:04:45;4.00;83.60
20672;DHT22;10495;50.922;4.760;2022-12-11T04:07:10;4.00;83.10
20672;DHT22;10495;50.922;4.760;2022-12-11T04:09:36;3.90;83.20
20672;DHT22;10495;50.922;4.760;2022-12-11T04:12:01;3.80;83.00
20672;DHT22;10495;50.922;4.760;2022-12-11T04:14:27;3.70;83.40
20672;DHT22;10495;50.922;4.760;2022-12-11T04:17:11;4.00;82.80
20672;DHT22;10495;50.922;4.760;2022-12-11T04:19:57;4.00;82.80
20672;DHT22;10495;50.922;4.760;2022-12-11T04:22:41;4.10;82.60
20672;DHT22;10495;50.922;4.760;2022-12-11T04:25:25;4.40;80.60
20672;DHT22;10495;50.922;4.760;2022-12-11T04:27:51;4.10;81.50
20672;DHT22;10495;50.922;4.760;2022-12-11T04:30:22;4.00;82.00
20672;DHT22;10495;50.922;4.760;2022-12-11T04:32:50;4.10;81.90
20672;DHT22;10495;50.922;4.760;2022-12-11T04:35:16;4.00;82.10
20672;DHT22;10495;50.922;4.760;2022-12-11T04:37:41;4.00;82.20
20672;DHT22;10495;50.922;4.760;2022-12-11T04:40:11;4.00;82.10
20672;DHT22;10495;50.922;4.760;2022-12-11T04:42:37;4.10;82.30
20672;DHT22;10495;50.922;4.760;2022-12-11T04:45:04;4.10;81.70
20672;DHT22;10495;50.922;4.760;2022-12-11T04:47:30;4.00;82.00
20672;DHT22;10495;50.922;4.760;2022-12-11T04:49:55;3.90;82.10
20672;DHT22;10495;50.922;4.760;2022-12-11T04:52:21;3.90;82.10
20672;DHT22;10495;50.922;4.760;2022-12-11T04:54:46;3.90;82.50
20672;DHT22;10495;50.922;4.760;2022-12-11T04:57:12;3.80;82.70
20672;DHT22;10495;50.922;4.760;2022-12-11T04:59:38;3.90;82.90
20672;DHT22;10495;50.922;4.760;2022-12-11T05:02:03;3.90;82.90
20672;DHT22;10495;50.922;4.760;2022-12-11T05:04:30;3.90;82.80
20672;DHT22;10495;50.922;4.760;2022-12-11T05:06:57;4.00;82.90
20672;DHT22;10495;50.922;4.760;2022-12-11T05:09:23;3.90;82.50
20672;DHT22;10495;50.922;4.760;2022-12-11T05:11:48;3.90;83.00
20672;DHT22;10495;50.922;4.760;2022-12-11T05:14:14;3.90;83.00
20672;DHT22;10495;50.922;4.760;2022-12-11T05:16:39;4.00;82.80
20672;DHT22;10495;50.922;4.760;2022-12-11T05:19:05;4.10;82.60
20672;DHT22;10495;50.922;4.760;2022-12-11T05:21:30;4.10;82.10
20672;DHT22;10495;50.922;4.760;2022-12-11T05:23:56;4.00;82.20
20672;DHT22;10495;50.922;4.760;2022-12-11T05:26:22;4.00;82.50
20672;DHT22;10495;50.922;4.760;2022-12-11T05:28:51;4.00;82.60
20672;DHT22;10495;50.922;4.760;2022-12-11T05:31:24;3.90;82.50
20672;DHT22;10495;50.922;4.760;2022-12-11T05:33:51;4.00;82.30
20672;DHT22;10495;50.922;4.760;2022-12-11T05:36:28;4.00;82.40
20672;DHT22;10495;50.922;4.760;2022-12-11T05:38:56;3.90;82.70
20672;DHT22;10495;50.922;4.760;2022-12-11T05:41:26;4.00;82.60
20672;DHT22;10495;50.922;4.760;2022-12-11T05:43:52;4.00;82.40
20672;DHT22;10495;50.922;4.760;2022-12-11T05:46:21;4.10;81.90
20672;DHT22;10495;50.922;4.760;2022-12-11T05:48:49;4.30;81.40
20672;DHT22;10495;50.922;4.760;2022-12-11T05:51:16;4.20;81.00
20672;DHT22;10495;50.922;4.760;2022-12-11T05:53:43;4.10;80.90
20672;DHT22;10495;50.922;4.760;2022-12-11T05:56:32;4.10;81.10
20672;DHT22;10495;50.922;4.760;2022-12-11T05:58:59;4.20;81.10
20672;DHT22;10495;50.922;4.760;2022-12-11T06:01:28;4.40;80.20
20672;DHT22;10495;50.922;4.760;2022-12-11T06:03:55;4.40;79.80
20672;DHT22;10495;50.922;4.760;2022-12-11T06:06:21;4.30;79.70
20672;DHT22;10495;50.922;4.760;2022-12-11T06:08:51;4.30;80.10
20672;DHT22;10495;50.922;4.760;2022-12-11T06:11:17;4.30;80.00
20672;DHT22;10495;50.922;4.760;2022-12-11T06:13:42;4.30;80.00
20672;DHT22;10495;50.922;4.760;2022-12-11T06:16:09;4.10;80.30
20672;DHT22;10495;50.922;4.760;2022-12-11T06:18:40;4.00;81.30
20672;DHT22;10495;50.922;4.760;2022-12-11T06:21:24;4.00;81.00
20672;DHT22;10495;50.922;4.760;2022-12-11T06:23:52;4.10;81.00
20672;DHT22;10495;50.922;4.760;2022-12-11T06:26:18;4.10;80.80
20672;DHT22;10495;50.922;4.760;2022-12-11T06:28:45;3.90;81.60
20672;DHT22;10495;50.922;4.760;2022-12-11T06:31:11;4.00;81.50
20672;DHT22;10495;50.922;4.760;2022-12-11T06:33:36;4.00;81.60
20672;DHT22;10495;50.922;4.760;2022-12-11T06:36:09;3.90;81.80
20672;DHT22;10495;50.922;4.760;2022-12-11T06:38:35;3.90;82.20
20672;DHT22;10495;50.922;4.760;2022-12-11T06:41:05;3.80;82.50
20672;DHT22;10495;50.922;4.760;2022-12-11T06:43:33;3.90;82.40
20672;DHT22;10495;50.922;4.760;2022-12-11T06:46:02;3.90;82.40
20672;DHT22;10495;50.922;4.760;2022-12-11T06:48:27;3.80;82.30
20672;DHT22;10495;50.922;4.760;2022-12-11T06:50:53;3.90;82.90
20672;DHT22;10495;50.922;4.760;2022-12-11T06:53:19;3.80;82.70
20672;DHT22;10495;50.922;4.760;2022-12-11T06:55:44;3.90;82.60
20672;DHT22;10495;50.922;4.760;2022-12-11T06:58:10;4.00;82.60
20672;DHT22;10495;50.922;4.760;2022-12-11T07:00:37;3.90;82.60
20672;DHT22;10495;50.922;4.760;2022-12-11T07:03:02;3.80;83.00
20672;DHT22;10495;50.922;4.760;2022-12-11T07:05:29;3.80;83.40
20672;DHT22;10495;50.922;4.760;2022-12-11T07:07:55;3.90;83.50
20672;DHT22;10495;50.922;4.760;2022-12-11T07:10:21;3.90;83.40
20672;DHT22;10495;50.922;4.760;2022-12-11T07:12:47;4.00;82.00
20672;DHT22;10495;50.922;4.760;2022-12-11T07:15:12;3.90;82.80
20672;DHT22;10495;50.922;4.760;2022-12-11T07:17:38;4.10;82.40
20672;DHT22;10495;50.922;4.760;2022-12-11T07:20:04;4.00;82.00
20672;DHT22;10495;50.922;4.760;2022-12-11T07:22:30;4.00;81.60
20672;DHT22;10495;50.922;4.760;2022-12-11T07:24:56;4.10;81.40
20672;DHT22;10495;50.922;4.760;2022-12-11T07:27:21;4.00;81.20
20672;DHT22;10495;50.922;4.760;2022-12-11T07:29:49;3.90;82.20
20672;DHT22;10495;50.922;4.760;2022-12-11T07:32:14;3.70;82.50
20672;DHT22;10495;50.922;4.760;2022-12-11T07:34:40;3.70;82.60
20672;DHT22;10495;50.922;4.760;2022-12-11T07:37:06;3.60;83.00
20672;DHT22;10495;50.922;4.760;2022-12-11T07:39:31;3.80;82.50
20672;DHT22;10495;50.922;4.760;2022-12-11T07:41:57;3.80;81.70
20672;DHT22;10495;50.922;4.760;2022-12-11T07:44:22;3.70;82.40
20672;DHT22;10495;50.922;4.760;2022-12-11T07:46:48;3.90;81.90
20672;DHT22;10495;50.922;4.760;2022-12-11T07:49:14;3.80;81.50
20672;DHT22;10495;50.922;4.760;2022-12-11T07:51:39;3.80;81.70
20672;DHT22;10495;50.922;4.760;2022-12-11T07:54:10;3.60;82.90
20672;DHT22;10495;50.922;4.760;2022-12-11T07:56:39;3.50;82.70
20672;DHT22;10495;50.922;4.760;2022-12-11T07:59:05;3.50;83.00
20672;DHT22;10495;50.922;4.760;2022-12-11T08:01:33;3.50;82.60
20672;DHT22;10495;50.922;4.760;2022-12-11T08:04:04;3.60;83.10
20672;DHT22;10495;50.922;4.760;2022-12-11T08:06:32;3.40;83.00
20672;DHT22;10495;50.922;4.760;2022-12-11T08:09:00;3.40;83.70
20672;DHT22;10495;50.922;4.760;2022-12-11T08:11:26;3.20;83.70
20672;DHT22;10495;50.922;4.760;2022-12-11T08:13:52;3.20;83.80
20672;DHT22;10495;50.922;4.760;2022-12-11T08:16:18;3.10;84.30
20672;DHT22;10495;50.922;4.760;2022-12-11T08:18:45;3.20;84.70
20672;DHT22;10495;50.922;4.760;2022-12-11T08:21:14;3.50;83.20
20672;DHT22;10495;50.922;4.760;2022-12-11T08:23:40;3.30;83.60
20672;DHT22;10495;50.922;4.760;2022-12-11T08:26:08;3.30;83.50
20672;DHT22;10495;50.922;4.760;2022-12-11T08:28:34;3.40;83.40
20672;DHT22;10495;50.922;4.760;2022-12-11T08:31:03;3.60;83.30
20672;DHT22;10495;50.922;4.760;2022-12-11T08:33:30;3.70;82.90
20672;DHT22;10495;50.922;4.760;2022-12-11T08:35:55;3.60;82.60
20672;DHT22;10495;50.922;4.760;2022-12-11T08:38:21;3.40;83.10
20672;DHT22;10495;50.922;4.760;2022-12-11T08:40:47;3.50;82.70
20672;DHT22;10495;50.922;4.760;2022-12-11T08:43:12;3.70;81.40
20672;DHT22;10495;50.922;4.760;2022-12-11T08:45:38;3.60;82.00
20672;DHT22;10495;50.922;4.760;2022-12-11T08:48:04;3.40;82.80
20672;DHT22;10495;50.922;4.760;2022-12-11T08:50:30;3.20;83.50
20672;DHT22;10495;50.922;4.760;2022-12-11T08:52:56;3.10;84.20
20672;DHT22;10495;50.922;4.760;2022-12-11T08:55:22;3.30;83.50
20672;DHT22;10495;50.922;4.760;2022-12-11T08:57:48;3.20;83.70
20672;DHT22;10495;50.922;4.760;2022-12-11T09:00:14;3.30;84.10
20672;DHT22;10495;50.922;4.760;2022-12-11T09:02:40;3.30;83.90
20672;DHT22;10495;50.922;4.760;2022-12-11T09:05:06;3.30;84.10
20672;DHT22;10495;50.922;4.760;2022-12-11T09:07:33;3.30;84.30
20672;DHT22;10495;50.922;4.760;2022-12-11T09:09:58;3.40;84.10
20672;DHT22;10495;50.922;4.760;2022-12-11T09:12:25;3.30;84.00
20672;DHT22;10495;50.922;4.760;2022-12-11T09:14:51;3.50;84.00
20672;DHT22;10495;50.922;4.760;2022-12-11T09:17:16;3.50;83.80
20672;DHT22;10495;50.922;4.760;2022-12-11T09:19:42;3.60;83.50
20672;DHT22;10495;50.922;4.760;2022-12-11T09:22:07;3.70;82.40
20672;DHT22;10495;50.922;4.760;2022-12-11T09:24:36;3.70;82.80
20672;DHT22;10495;50.922;4.760;2022-12-11T09:27:02;3.70;83.00
20672;DHT22;10495;50.922;4.760;2022-12-11T09:29:28;3.90;82.50
20672;DHT22;10495;50.922;4.760;2022-12-11T09:31:54;4.00;82.00
20672;DHT22;10495;50.922;4.760;2022-12-11T09:34:20;4.10;81.00
20672;DHT22;10495;50.922;4.760;2022-12-11T09:36:45;4.30;80.40
20672;DHT22;10495;50.922;4.760;2022-12-11T09:39:12;4.40;79.30
20672;DHT22;10495;50.922;4.760;2022-12-11T09:44:25;4.00;79.90
20672;DHT22;10495;50.922;4.760;2022-12-11T09:46:55;4.00;80.70
20672;DHT22;10495;50.922;4.760;2022-12-11T09:49:37;4.20;79.80
20672;DHT22;10495;50.922;4.760;2022-12-11T09:54:46;3.70;80.50
20672;DHT22;10495;50.922;4.760;2022-12-11T09:57:31;3.80;81.40
20672;DHT22;10495;50.922;4.760;2022-12-11T10:08:17;3.60;81.80
20672;DHT22;10495;50.922;4.760;2022-12-11T10:13:52;3.80;82.10
20672;DHT22;10495;50.922;4.760;2022-12-11T10:16:39;3.80;82.30
20672;DHT22;10495;50.922;4.760;2022-12-11T10:19:07;3.80;82.70
20672;DHT22;10495;50.922;4.760;2022-12-11T10:21:40;3.80;82.60
20672;DHT22;10495;50.922;4.760;2022-12-11T10:26:44;4.00;82.00
20672;DHT22;10495;50.922;4.760;2022-12-11T10:29:13;4.20;80.50
20672;DHT22;10495;50.922;4.760;2022-12-11T10:34:35;3.90;80.80
20672;DHT22;10495;50.922;4.760;2022-12-11T10:37:02;3.90;80.50
20672;DHT22;10495;50.922;4.760;2022-12-11T10:39:28;4.00;80.70
20672;DHT22;10495;50.922;4.760;2022-12-11T10:41:55;3.90;79.70
20672;DHT22;10495;50.922;4.760;2022-12-11T10:44:22;4.10;80.00
20672;DHT22;10495;50.922;4.760;2022-12-11T10:47:08;4.20;80.50
20672;DHT22;10495;50.922;4.760;2022-12-11T10:49:36;4.10;80.00
20672;DHT22;10495;50.922;4.760;2022-12-11T10:52:17;4.00;79.80
20672;DHT22;10495;50.922;4.760;2022-12-11T10:54:46;4.20;80.20
20672;DHT22;10495;50.922;4.760;2022-12-11T10:57:26;4.40;80.00
20672;DHT22;10495;50.922;4.760;2022-12-11T10:59:52;4.40;79.60
20672;DHT22;10495;50.922;4.760;2022-12-11T11:04:50;4.40;77.20
20672;DHT22;10495;50.922;4.760;2022-12-11T11:07:21;4.30;78.50
20672;DHT22;10495;50.922;4.760;2022-12-11T11:09:48;4.00;78.60
20672;DHT22;10495;50.922;4.760;2022-12-11T11:12:25;4.10;79.40
20672;DHT22;10495;50.922;4.760;2022-12-11T11:15:06;4.30;79.40
20672;DHT22;10495;50.922;4.760;2022-12-11T11:17:42;4.20;78.80
20672;DHT22;10495;50.922;4.760;2022-12-11T11:20:16;4.30;79.30
20672;DHT22;10495;50.922;4.760;2022-12-11T11:22:45;4.40;78.60
20672;DHT22;10495;50.922;4.760;2022-12-11T11:25:19;4.50;78.10
20672;DHT22;10495;50.922;4.760;2022-12-11T11:28:02;4.20;77.90
20672;DHT22;10495;50.922;4.760;2022-12-11T11:30:33;4.20;78.30
20672;DHT22;10495;50.922;4.760;2022-12-11T11:33:05;4.10;78.50
20672;DHT22;10495;50.922;4.760;2022-12-11T11:35:36;4.10;78.70
20672;DHT22;10495;50.922;4.760;2022-12-11T11:38:16;4.10;78.90
20672;DHT22;10495;50.922;4.760;2022-12-11T11:40:53;4.20;79.20
20672;DHT22;10495;50.922;4.760;2022-12-11T11:44:05;4.20;79.40
20672;DHT22;10495;50.922;4.760;2022-12-11T11:51:39;4.40;78.70
20672;DHT22;10495;50.922;4.760;2022-12-11T11:54:39;4.50;78.90
20672;DHT22;10495;50.922;4.760;2022-12-11T11:59:56;4.70;76.60
20672;DHT22;10495;50.922;4.760;2022-12-11T12:02:23;4.70;76.80
20672;DHT22;10495;50.922;4.760;2022-12-11T12:04:49;4.70;76.00
20672;DHT22;10495;50.922;4.760;2022-12-11T12:08:13;4.70;76.60
20672;DHT22;10495;50.922;4.760;2022-12-11T12:14:00;4.70;75.10
20672;DHT22;10495;50.922;4.760;2022-12-11T12:21:50;4.50;75.20
20672;DHT22;10495;50.922;4.760;2022-12-11T12:27:50;4.50;74.70
20672;DHT22;10495;50.922;4.760;2022-12-11T12:30:18;4.70;73.70
20672;DHT22;10495;50.922;4.760;2022-12-11T12:35:35;4.60;73.60
20672;DHT22;10495;50.922;4.760;2022-12-11T12:38:21;4.70;72.70
20672;DHT22;10495;50.922;4.760;2022-12-11T12:41:04;4.80;72.50
20672;DHT22;10495;50.922;4.760;2022-12-11T12:48:41;4.90;70.70
20672;DHT22;10495;50.922;4.760;2022-12-11T12:51:14;4.80;71.20
20672;DHT22;10495;50.922;4.760;2022-12-11T12:53:45;4.50;71.90
20672;DHT22;10495;50.922;4.760;2022-12-11T12:56:11;4.40;72.90
20672;DHT22;10495;50.922;4.760;2022-12-11T12:58:42;4.30;72.90
20672;DHT22;10495;50.922;4.760;2022-12-11T13:01:16;4.40;72.90
20672;DHT22;10495;50.922;4.760;2022-12-11T13:04:05;4.60;72.40
20672;DHT22;10495;50.922;4.760;2022-12-11T13:06:45;4.70;71.40
20672;DHT22;10495;50.922;4.760;2022-12-11T13:09:16;4.60;71.80
20672;DHT22;10495;50.922;4.760;2022-12-11T13:11:42;4.60;72.50
20672;DHT22;10495;50.922;4.760;2022-12-11T13:16:42;4.60;73.20
20672;DHT22;10495;50.922;4.760;2022-12-11T13:27:26;4.90;72.40
20672;DHT22;10495;50.922;4.760;2022-12-11T13:30:04;4.80;72.60
20672;DHT22;10495;50.922;4.760;2022-12-11T13:32:30;4.60;73.70
20672;DHT22;10495;50.922;4.760;2022-12-11T13:34:57;4.60;74.00
20672;DHT22;10495;50.922;4.760;2022-12-11T13:39:53;4.60;75.20
20672;DHT22;10495;50.922;4.760;2022-12-11T13:42:28;4.70;74.60
20672;DHT22;10495;50.922;4.760;2022-12-11T13:44:55;4.80;75.10
20672;DHT22;10495;50.922;4.760;2022-12-11T13:47:21;4.70;75.00
20672;DHT22;10495;50.922;4.760;2022-12-11T13:49:52;4.50;76.10
20672;DHT22;10495;50.922;4.760;2022-12-11T13:52:22;4.50;76.40
20672;DHT22;10495;50.922;4.760;2022-12-11T13:54:52;4.40;77.30
20672;DHT22;10495;50.922;4.760;2022-12-11T13:57:23;4.30;77.60
20672;DHT22;10495;50.922;4.760;2022-12-11T13:59:56;4.40;77.40
20672;DHT22;10495;50.922;4.760;2022-12-11T14:02:29;4.40;77.40
20672;DHT22;10495;50.922;4.760;2022-12-11T14:05:02;4.40;78.00
20672;DHT22;10495;50.922;4.760;2022-12-11T14:07:32;4.40;78.30
20672;DHT22;10495;50.922;4.760;2022-12-11T14:10:27;4.40;78.90
20672;DHT22;10495;50.922;4.760;2022-12-11T14:15:47;4.50;78.90
20672;DHT22;10495;50.922;4.760;2022-12-11T14:18:20;4.50;78.40
20672;DHT22;10495;50.922;4.760;2022-12-11T14:20:53;4.50;78.70
20672;DHT22;10495;50.922;4.760;2022-12-11T14:23:22;4.70;78.10
20672;DHT22;10495;50.922;4.760;2022-12-11T14:25:57;4.60;78.30
20672;DHT22;10495;50.922;4.760;2022-12-11T14:28:24;4.50;78.20
20672;DHT22;10495;50.922;4.760;2022-12-11T14:30:56;4.50;78.40
20672;DHT22;10495;50.922;4.760;2022-12-11T14:33:27;4.50;78.60
20672;DHT22;10495;50.922;4.760;2022-12-11T14:35:55;4.50;78.60
20672;DHT22;10495;50.922;4.760;2022-12-11T14:38:30;4.50;78.60
20672;DHT22;10495;50.922;4.760;2022-12-11T14:41:02;4.50;78.80
20672;DHT22;10495;50.922;4.760;2022-12-11T14:43:50;4.50;78.80
20672;DHT22;10495;50.922;4.760;2022-12-11T14:46:28;4.50;79.00
20672;DHT22;10495;50.922;4.760;2022-12-11T14:49:02;4.50;79.00
20672;DHT22;10495;50.922;4.760;2022-12-11T14:51:32;4.50;78.70
20672;DHT22;10495;50.922;4.760;2022-12-11T14:53:59;4.50;78.80
20672;DHT22;10495;50.922;4.760;2022-12-11T14:56:26;4.50;78.70
20672;DHT22;10495;50.922;4.760;2022-12-11T14:58:58;4.50;78.90
20672;DHT22;10495;50.922;4.760;2022-12-11T15:01:31;4.50;78.50
20672;DHT22;10495;50.922;4.760;2022-12-11T15:04:06;4.50;78.50
20672;DHT22;10495;50.922;4.760;2022-12-11T15:06:45;4.50;78.50
20672;DHT22;10495;50.922;4.760;2022-12-11T15:12:15;4.50;78.70
20672;DHT22;10495;50.922;4.760;2022-12-11T15:14:56;4.40;79.00
20672;DHT22;10495;50.922;4.760;2022-12-11T15:17:23;4.30;79.20
20672;DHT22;10495;50.922;4.760;2022-12-11T15:19:52;4.30;79.60
20672;DHT22;10495;50.922;4.760;2022-12-11T15:22:20;4.20;79.80
20672;DHT22;10495;50.922;4.760;2022-12-11T15:24:50;4.30;80.20
20672;DHT22;10495;50.922;4.760;2022-12-11T15:27:32;4.30;80.30
20672;DHT22;10495;50.922;4.760;2022-12-11T15:30:00;4.30;80.00
20672;DHT22;10495;50.922;4.760;2022-12-11T15:32:26;4.30;80.00
20672;DHT22;10495;50.922;4.760;2022-12-11T15:34:57;4.30;80.50
20672;DHT22;10495;50.922;4.760;2022-12-11T15:37:26;4.20;80.80
20672;DHT22;10495;50.922;4.760;2022-12-11T15:39:53;4.30;80.90
20672;DHT22;10495;50.922;4.760;2022-12-11T15:42:24;4.20;80.90
20672;DHT22;10495;50.922;4.760;2022-12-11T15:44:52;4.10;81.30
20672;DHT22;10495;50.922;4.760;2022-12-11T15:47:21;4.10;81.40
20672;DHT22;10495;50.922;4.760;2022-12-11T15:49:47;4.00;81.50
20672;DHT22;10495;50.922;4.760;2022-12-11T15:52:12;3.90;81.70
20672;DHT22;10495;50.922;4.760;2022-12-11T15:54:38;4.00;81.50
20672;DHT22;10495;50.922;4.760;2022-12-11T15:57:06;4.20;81.30
20672;DHT22;10495;50.922;4.760;2022-12-11T15:59:37;4.10;81.50
20672;DHT22;10495;50.922;4.760;2022-12-11T16:02:03;4.00;82.50
20672;DHT22;10495;50.922;4.760;2022-12-11T16:04:28;4.00;82.50
20672;DHT22;10495;50.922;4.760;2022-12-11T16:06:54;4.00;82.20
20672;DHT22;10495;50.922;4.760;2022-12-11T16:09:20;4.00;82.30
20672;DHT22;10495;50.922;4.760;2022-12-11T16:11:46;4.00;82.40
20672;DHT22;10495;50.922;4.760;2022-12-11T16:14:11;4.00;82.60
20672;DHT22;10495;50.922;4.760;2022-12-11T16:16:37;4.10;82.40
20672;DHT22;10495;50.922;4.760;2022-12-11T16:19:02;4.00;82.40
20672;DHT22;10495;50.922;4.760;2022-12-11T16:21:28;4.00;82.40
20672;DHT22;10495;50.922;4.760;2022-12-11T16:23:54;4.10;82.20
20672;DHT22;10495;50.922;4.760;2022-12-11T16:26:19;4.20;82.20
20672;DHT22;10495;50.922;4.760;2022-12-11T16:28:45;4.20;82.10
20672;DHT22;10495;50.922;4.760;2022-12-11T16:31:11;4.10;82.10
20672;DHT22;10495;50.922;4.760;2022-12-11T16:33:38;4.10;82.30
20672;DHT22;10495;50.922;4.760;2022-12-11T16:36:18;4.10;82.40
20672;DHT22;10495;50.922;4.760;2022-12-11T16:38:47;4.10;82.40
20672;DHT22;10495;50.922;4.760;2022-12-11T16:41:13;4.10;82.50
20672;DHT22;10495;50.922;4.760;2022-12-11T16:43:38;4.10;82.50
20672;DHT22;10495;50.922;4.760;2022-12-11T16:46:04;4.20;82.30
20672;DHT22;10495;50.922;4.760;2022-12-11T16:48:30;4.40;81.90
20672;DHT22;10495;50.922;4.760;2022-12-11T16:50:56;4.20;81.90
20672;DHT22;10495;50.922;4.760;2022-12-11T16:53:22;4.20;81.80
20672;DHT22;10495;50.922;4.760;2022-12-11T16:55:48;4.20;81.50
20672;DHT22;10495;50.922;4.760;2022-12-11T16:58:14;4.20;81.50
20672;DHT22;10495;50.922;4.760;2022-12-11T17:00:45;4.20;81.80
20672;DHT22;10495;50.922;4.760;2022-12-11T17:03:11;4.10;82.00
20672;DHT22;10495;50.922;4.760;2022-12-11T17:05:41;4.10;82.20
20672;DHT22;10495;50.922;4.760;2022-12-11T17:08:07;4.10;81.90
20672;DHT22;10495;50.922;4.760;2022-12-11T17:10:38;4.20;81.80
20672;DHT22;10495;50.922;4.760;2022-12-11T17:13:04;4.20;82.00
20672;DHT22;10495;50.922;4.760;2022-12-11T17:15:29;4.30;81.30
20672;DHT22;10495;50.922;4.760;2022-12-11T17:17:55;4.20;81.50
20672;DHT22;10495;50.922;4.760;2022-12-11T17:20:21;4.20;81.60
20672;DHT22;10495;50.922;4.760;2022-12-11T17:22:46;4.10;81.60
20672;DHT22;10495;50.922;4.760;2022-12-11T17:25:12;4.10;81.90